Time;durP1;ratioP1;P1;durP2;ratioP2;P2;SDS_P1;SDS_P2;PMS_P1;PMS_P2;Temp;Humidity;BMP_temperature;BMP_pressure;BME280_temperature;BME280_humidity;BME280_pressure;Samples;Min_cycle;Max_cycle;Signal;HPM_P1;HPM_P2
2023/12/02 00:00:44;;;;;;;39.60;30.42;;;-2.60;99.90;;;;;;4958953;28;20049;-78
2023/12/02 00:03:11;;;;;;;37.35;27.90;;;-2.60;99.90;;;;;;4957723;28;20090;-77
2023/12/02 00:05:38;;;;;;;33.85;26.85;;;-2.60;99.90;;;;;;4968936;28;20067;-77
2023/12/02 00:08:05;;;;;;;36.30;28.45;;;-2.70;99.90;;;;;;4982131;28;20065;-77
2023/12/02 00:10:32;;;;;;;39.05;27.92;;;-2.70;99.90;;;;;;4957639;28;20145;-78
2023/12/02 00:12:58;;;;;;;37.20;26.65;;;-2.70;99.90;;;;;;4990848;28;20050;-77
2023/12/02 00:15:25;;;;;;;41.85;29.02;;;-2.80;99.90;;;;;;4963999;28;20043;-77
2023/12/02 00:17:53;;;;;;;37.80;27.50;;;-2.70;99.90;;;;;;4962887;28;20042;-78
2023/12/02 00:20:20;;;;;;;38.20;27.17;;;-2.70;99.90;;;;;;4959195;28;20073;-78
2023/12/02 00:22:47;;;;;;;31.27;24.70;;;-2.70;99.90;;;;;;4967119;28;20528;-77
2023/12/02 00:25:14;;;;;;;34.35;26.67;;;-2.80;99.90;;;;;;4942330;28;20137;-78
2023/12/02 00:27:40;;;;;;;33.28;26.65;;;-2.80;99.90;;;;;;4956970;28;20290;-78
2023/12/02 00:30:07;;;;;;;34.45;27.58;;;-2.70;99.90;;;;;;4946465;28;20042;-78
2023/12/02 00:32:34;;;;;;;34.85;26.88;;;-2.70;99.90;;;;;;4959502;28;20051;-77
2023/12/02 00:35:01;;;;;;;41.65;29.27;;;-2.70;99.90;;;;;;4971402;28;20047;-78
2023/12/02 00:37:28;;;;;;;35.42;28.10;;;-2.60;99.90;;;;;;4943236;28;20658;-78
2023/12/02 00:39:55;;;;;;;33.78;26.77;;;-2.60;99.90;;;;;;4960265;28;20046;-78
2023/12/02 00:42:21;;;;;;;35.25;27.13;;;-2.60;99.90;;;;;;4956861;28;20046;-77
2023/12/02 00:44:48;;;;;;;32.22;25.20;;;-2.60;99.90;;;;;;4964295;28;20599;-77
2023/12/02 00:47:15;;;;;;;35.03;26.90;;;-2.80;99.90;;;;;;4951220;28;20132;-77
2023/12/02 00:49:42;;;;;;;36.20;29.50;;;-2.70;99.90;;;;;;4958515;28;20065;-78
2023/12/02 00:52:09;;;;;;;37.33;27.17;;;-2.60;99.90;;;;;;4949946;28;20684;-78
2023/12/02 00:54:36;;;;;;;34.20;27.33;;;-2.60;99.90;;;;;;4947415;28;20047;-78
2023/12/02 00:57:03;;;;;;;30.38;26.50;;;-2.60;99.90;;;;;;4960811;28;20292;-76
2023/12/02 00:59:30;;;;;;;31.30;26.05;;;-2.40;99.90;;;;;;4963550;28;20621;-77
2023/12/02 01:01:57;;;;;;;27.35;24.52;;;-2.40;99.90;;;;;;4962821;28;20065;-78
2023/12/02 01:04:24;;;;;;;27.25;24.52;;;-2.60;99.90;;;;;;4958566;28;20286;-77
2023/12/02 01:06:51;;;;;;;27.67;24.23;;;-2.70;99.90;;;;;;4964456;28;20090;-78
2023/12/02 01:09:18;;;;;;;28.45;24.23;;;-2.70;99.90;;;;;;4950572;28;20053;-78
2023/12/02 01:11:44;;;;;;;24.92;22.27;;;-2.80;99.90;;;;;;4965025;28;20100;-78
2023/12/02 01:14:11;;;;;;;27.48;24.70;;;-2.80;99.90;;;;;;4957586;28;20058;-77
2023/12/02 01:16:38;;;;;;;27.70;23.90;;;-2.80;99.90;;;;;;4972404;28;20066;-78
2023/12/02 01:19:05;;;;;;;23.63;21.52;;;-2.70;99.90;;;;;;4964354;28;20496;-76
2023/12/02 01:21:32;;;;;;;23.98;21.52;;;-2.80;99.90;;;;;;4948797;28;20743;-77
2023/12/02 01:23:59;;;;;;;26.33;23.52;;;-2.90;99.90;;;;;;4971204;28;20042;-77
2023/12/02 01:26:25;;;;;;;25.20;22.73;;;-2.90;99.90;;;;;;4953730;28;20133;-77
2023/12/02 01:28:52;;;;;;;24.52;22.33;;;-2.90;99.90;;;;;;4975492;28;20042;-77
2023/12/02 01:31:19;;;;;;;24.30;22.02;;;-2.90;99.90;;;;;;4976867;28;20132;-77
2023/12/02 01:33:46;;;;;;;26.38;23.55;;;-2.80;99.90;;;;;;4990172;28;20046;-77
2023/12/02 01:36:14;;;;;;;24.52;22.02;;;-2.80;99.90;;;;;;4977957;28;20050;-77
2023/12/02 01:38:44;;;;;;;25.42;22.90;;;-2.70;99.90;;;;;;4976237;28;20121;-78
2023/12/02 01:41:11;;;;;;;28.77;24.98;;;-2.80;99.90;;;;;;4988966;28;20054;-78
2023/12/02 01:43:39;;;;;;;26.30;23.50;;;-2.70;99.90;;;;;;4964274;28;20047;-77
2023/12/02 01:46:05;;;;;;;27.33;23.95;;;-2.70;99.90;;;;;;4967084;28;20584;-78
2023/12/02 01:48:34;;;;;;;27.15;24.00;;;-2.70;99.90;;;;;;4960332;28;20039;-78
2023/12/02 01:51:02;;;;;;;25.27;22.60;;;-2.70;99.90;;;;;;4961752;28;20065;-77
2023/12/02 01:53:29;;;;;;;25.38;22.77;;;-2.70;99.90;;;;;;4962776;28;20054;-78
2023/12/02 01:55:58;;;;;;;24.73;22.30;;;-2.70;99.90;;;;;;4946762;28;20077;-78
2023/12/02 01:58:25;;;;;;;24.30;21.75;;;-2.70;99.90;;;;;;4940967;28;20105;-77
2023/12/02 02:00:52;;;;;;;27.00;24.15;;;-2.70;99.90;;;;;;4965279;28;20034;-78
2023/12/02 02:03:19;;;;;;;29.40;23.70;;;-2.70;99.90;;;;;;4972865;28;20109;-78
2023/12/02 02:05:46;;;;;;;28.05;25.05;;;-2.70;99.90;;;;;;4961554;28;20746;-78
2023/12/02 02:08:14;;;;;;;27.00;24.17;;;-2.60;99.90;;;;;;4950896;28;20046;-78
2023/12/02 02:10:40;;;;;;;27.83;25.05;;;-2.50;99.90;;;;;;4960179;28;20616;-77
2023/12/02 02:13:07;;;;;;;26.23;23.58;;;-2.60;99.90;;;;;;4969442;28;20053;-75
2023/12/02 02:15:35;;;;;;;27.05;24.17;;;-2.70;99.90;;;;;;4969502;28;20042;-75
2023/12/02 02:18:02;;;;;;;26.05;23.20;;;-2.70;99.90;;;;;;4963744;28;20077;-78
2023/12/02 02:20:29;;;;;;;27.55;23.77;;;-2.70;99.90;;;;;;4962398;28;20096;-79
2023/12/02 02:22:56;;;;;;;26.15;23.00;;;-2.70;99.90;;;;;;4956207;28;20042;-77
2023/12/02 02:25:23;;;;;;;26.52;23.70;;;-2.70;99.90;;;;;;4964577;28;20205;-77
2023/12/02 02:27:49;;;;;;;27.38;24.45;;;-2.70;99.90;;;;;;4956975;28;20052;-78
2023/12/02 02:30:16;;;;;;;29.33;24.63;;;-2.70;99.90;;;;;;4980248;28;20034;-78
2023/12/02 02:32:43;;;;;;;29.23;23.50;;;-2.60;99.90;;;;;;4969718;28;20485;-76
2023/12/02 02:35:10;;;;;;;29.90;25.20;;;-2.50;99.90;;;;;;4961170;28;20034;-75
2023/12/02 02:37:36;;;;;;;32.65;26.20;;;-2.40;99.90;;;;;;4978056;28;20078;-77
2023/12/02 02:40:05;;;;;;;34.13;25.75;;;-2.50;99.90;;;;;;4962525;28;20137;-76
2023/12/02 02:42:32;;;;;;;30.42;23.67;;;-2.50;99.90;;;;;;4953447;28;20073;-75
2023/12/02 02:44:59;;;;;;;31.80;23.88;;;-2.50;99.90;;;;;;4958820;28;20096;-78
2023/12/02 02:47:26;;;;;;;28.05;23.25;;;-2.60;99.90;;;;;;4954055;28;20057;-76
2023/12/02 02:49:53;;;;;;;28.90;24.67;;;-2.70;99.90;;;;;;4957494;28;20035;-76
2023/12/02 02:52:19;;;;;;;29.30;25.42;;;-2.70;99.90;;;;;;4960362;28;20116;-76
2023/12/02 02:54:47;;;;;;;27.08;24.17;;;-2.70;99.90;;;;;;4957212;28;20104;-76
2023/12/02 02:57:14;;;;;;;25.67;23.10;;;-2.70;99.90;;;;;;4941002;28;20125;-76
2023/12/02 02:59:41;;;;;;;27.42;23.30;;;-2.70;99.90;;;;;;4959066;28;20141;-76
2023/12/02 03:02:08;;;;;;;24.20;21.77;;;-2.80;99.90;;;;;;4976884;28;20569;-76
2023/12/02 03:04:34;;;;;;;26.30;22.95;;;-2.70;99.90;;;;;;4957219;28;20170;-76
2023/12/02 03:07:01;;;;;;;24.77;22.23;;;-2.80;99.90;;;;;;4958414;28;20263;-76
2023/12/02 03:09:28;;;;;;;26.08;22.88;;;-2.80;99.90;;;;;;4947466;28;20053;-76
2023/12/02 03:11:55;;;;;;;29.00;23.90;;;-2.80;99.90;;;;;;4958521;28;20069;-76
2023/12/02 03:14:22;;;;;;;27.83;24.35;;;-2.80;99.90;;;;;;4938426;28;20524;-76
2023/12/02 03:16:49;;;;;;;26.83;22.65;;;-2.80;99.90;;;;;;4972700;28;20109;-77
2023/12/02 03:19:18;;;;;;;29.80;23.77;;;-2.70;99.90;;;;;;4954047;28;20057;-76
2023/12/02 03:21:45;;;;;;;27.98;23.95;;;-2.70;99.90;;;;;;4939322;28;20105;-76
2023/12/02 03:24:12;;;;;;;30.80;25.17;;;-2.70;99.90;;;;;;4949060;28;20556;-76
2023/12/02 03:26:39;;;;;;;29.40;26.10;;;-2.60;99.90;;;;;;4951445;28;20045;-76
2023/12/02 03:29:05;;;;;;;29.33;25.75;;;-2.60;99.90;;;;;;4960138;28;20038;-76
2023/12/02 03:31:33;;;;;;;35.13;28.08;;;-2.50;99.90;;;;;;4952103;28;20050;-76
2023/12/02 03:34:00;;;;;;;36.50;27.98;;;-2.50;99.90;;;;;;4977854;28;20042;-75
2023/12/02 03:36:27;;;;;;;36.72;27.45;;;-2.60;99.90;;;;;;4975111;28;20305;-77
2023/12/02 03:38:54;;;;;;;37.75;26.60;;;-2.50;99.90;;;;;;4958846;28;20120;-78
2023/12/02 03:41:21;;;;;;;34.95;26.48;;;-2.50;99.90;;;;;;4962060;28;20034;-78
2023/12/02 03:43:48;;;;;;;35.55;26.95;;;-2.60;99.90;;;;;;4961368;28;20047;-78
2023/12/02 03:46:28;;;;;;;37.92;27.17;;;-2.60;99.90;;;;;;4954887;28;20047;-78
2023/12/02 03:48:55;;;;;;;34.92;27.63;;;-2.60;99.90;;;;;;4954583;28;20054;-78
2023/12/02 03:51:22;;;;;;;35.30;25.52;;;-2.50;99.90;;;;;;4938747;28;20145;-77
2023/12/02 03:53:49;;;;;;;31.63;26.20;;;-2.50;99.90;;;;;;4960323;28;20043;-78
2023/12/02 03:56:16;;;;;;;33.65;26.42;;;-2.50;99.90;;;;;;4959238;28;20043;-78
2023/12/02 03:58:42;;;;;;;32.55;25.48;;;-2.50;99.90;;;;;;4959632;28;20050;-78
2023/12/02 04:01:10;;;;;;;32.88;26.05;;;-2.60;99.90;;;;;;4959555;28;20047;-78
2023/12/02 04:03:37;;;;;;;29.13;25.63;;;-2.70;99.90;;;;;;4967395;28;20061;-78
2023/12/02 04:06:05;;;;;;;31.27;26.27;;;-2.60;99.90;;;;;;4964129;28;20049;-77
2023/12/02 04:08:32;;;;;;;31.08;27.58;;;-2.70;99.90;;;;;;4973014;28;20039;-78
2023/12/02 04:10:59;;;;;;;29.75;25.38;;;-2.60;99.90;;;;;;4958966;28;20078;-77
2023/12/02 04:13:25;;;;;;;30.92;26.40;;;-2.70;99.90;;;;;;4978353;28;20045;-78
2023/12/02 04:15:52;;;;;;;30.05;25.17;;;-2.70;99.90;;;;;;4962068;28;20044;-78
2023/12/02 04:18:19;;;;;;;26.65;23.88;;;-2.80;99.90;;;;;;4960316;28;20057;-78
2023/12/02 04:20:46;;;;;;;29.33;26.17;;;-2.80;99.90;;;;;;4981620;28;20692;-77
2023/12/02 04:23:14;;;;;;;33.20;27.25;;;-2.90;99.90;;;;;;4962804;28;20190;-78
2023/12/02 04:25:40;;;;;;;39.50;28.45;;;-2.90;99.90;;;;;;4958776;28;20052;-78
2023/12/02 04:28:10;;;;;;;36.05;26.45;;;-2.70;99.90;;;;;;4978808;28;20104;-78
2023/12/02 04:30:37;;;;;;;34.83;27.40;;;-2.60;99.90;;;;;;4957004;28;20057;-78
2023/12/02 04:33:04;;;;;;;34.58;27.27;;;-2.70;99.90;;;;;;4944359;28;20069;-77
2023/12/02 04:35:34;;;;;;;38.03;29.83;;;-2.60;99.90;;;;;;4946728;28;20113;-78
2023/12/02 04:38:01;;;;;;;40.75;29.30;;;-2.70;99.90;;;;;;4974505;28;20054;-78
2023/12/02 04:40:27;;;;;;;34.10;27.08;;;-2.70;99.90;;;;;;4957797;28;20113;-78
2023/12/02 04:42:54;;;;;;;32.40;28.23;;;-2.60;99.90;;;;;;4938703;28;20071;-78
2023/12/02 04:45:21;;;;;;;37.60;28.13;;;-2.50;99.90;;;;;;4958444;28;20515;-77
2023/12/02 04:47:48;;;;;;;39.70;28.02;;;-2.60;99.90;;;;;;4959770;28;20577;-78
2023/12/02 04:50:15;;;;;;;35.55;26.83;;;-2.60;99.90;;;;;;4960728;28;20767;-78
2023/12/02 04:52:44;;;;;;;36.88;29.92;;;-2.60;99.90;;;;;;4939846;28;20046;-78
2023/12/02 04:55:11;;;;;;;36.67;27.52;;;-2.70;99.90;;;;;;4954712;28;20046;-78
2023/12/02 04:57:38;;;;;;;31.98;25.63;;;-2.70;99.90;;;;;;4939303;28;20046;-78
2023/12/02 05:00:14;;;;;;;38.20;27.20;;;-2.70;99.90;;;;;;4950314;28;20153;-77
2023/12/02 05:02:42;;;;;;;39.03;28.55;;;-2.70;99.90;;;;;;4962249;28;20038;-77
2023/12/02 05:05:10;;;;;;;34.40;27.08;;;-2.70;99.90;;;;;;4962503;28;20488;-77
2023/12/02 05:07:37;;;;;;;31.90;26.17;;;-2.80;99.90;;;;;;4982012;28;20039;-77
2023/12/02 05:10:07;;;;;;;26.75;23.52;;;-2.80;99.90;;;;;;4990837;28;20152;-77
2023/12/02 05:12:35;;;;;;;115.10;32.35;;;-2.80;99.90;;;;;;4983442;28;20081;-78
2023/12/02 05:15:03;;;;;;;32.38;26.60;;;-2.80;99.90;;;;;;4955929;28;20098;-78
2023/12/02 05:17:30;;;;;;;38.55;27.13;;;-2.90;99.90;;;;;;4961273;28;20058;-77
2023/12/02 05:19:57;;;;;;;35.05;27.15;;;-2.90;99.90;;;;;;4963834;28;20042;-77
2023/12/02 05:22:24;;;;;;;36.00;27.85;;;-3.00;99.90;;;;;;4955906;28;20129;-78
2023/12/02 05:24:51;;;;;;;36.45;28.20;;;-3.00;99.90;;;;;;4974713;28;20043;-76
2023/12/02 05:27:18;;;;;;;34.63;27.30;;;-3.00;99.90;;;;;;4967452;28;20050;-77
2023/12/02 05:29:45;;;;;;;37.58;28.05;;;-2.90;99.90;;;;;;4974404;28;20043;-77
2023/12/02 05:32:12;;;;;;;38.00;28.63;;;-2.80;99.90;;;;;;4963593;28;20042;-77
2023/12/02 05:34:39;;;;;;;36.38;28.63;;;-2.80;99.90;;;;;;4945574;28;20053;-77
2023/12/02 05:37:06;;;;;;;41.70;30.45;;;-2.80;99.90;;;;;;4939640;28;20704;-76
2023/12/02 05:39:34;;;;;;;36.70;29.23;;;-2.80;99.90;;;;;;4974283;28;20046;-79
2023/12/02 05:42:01;;;;;;;36.63;28.90;;;-2.80;99.90;;;;;;4962005;28;20183;-78
2023/12/02 05:44:28;;;;;;;37.33;31.17;;;-2.70;99.90;;;;;;4956551;28;20078;-77
2023/12/02 05:46:55;;;;;;;34.35;28.27;;;-2.60;99.90;;;;;;4959553;28;20065;-78
2023/12/02 05:49:21;;;;;;;43.15;32.53;;;-2.60;99.90;;;;;;4955346;28;20046;-77
2023/12/02 05:51:48;;;;;;;39.40;29.80;;;-2.60;99.90;;;;;;4972853;28;20069;-77
2023/12/02 05:54:15;;;;;;;39.20;28.20;;;-2.60;99.90;;;;;;4956440;28;20054;-77
2023/12/02 05:56:42;;;;;;;37.38;29.60;;;-2.70;99.90;;;;;;4938294;28;20101;-77
2023/12/02 05:59:09;;;;;;;39.92;30.17;;;-2.70;99.90;;;;;;4957396;28;20055;-76
2023/12/02 06:01:36;;;;;;;38.25;30.13;;;-2.70;99.90;;;;;;4970769;28;20533;-78
2023/12/02 06:04:03;;;;;;;41.25;31.73;;;-2.60;99.90;;;;;;4954623;28;20130;-77
2023/12/02 06:06:31;;;;;;;43.65;31.85;;;-2.70;99.90;;;;;;4957291;28;20043;-78
2023/12/02 06:08:57;;;;;;;39.00;30.98;;;-2.60;99.90;;;;;;4952347;28;20489;-77
2023/12/02 06:11:25;;;;;;;36.78;29.67;;;-2.50;99.90;;;;;;4941070;28;20046;-75
2023/12/02 06:13:52;;;;;;;34.97;29.80;;;-2.60;99.90;;;;;;4946252;28;20058;-77
2023/12/02 06:16:19;;;;;;;31.45;27.98;;;-2.70;99.90;;;;;;4972429;28;20047;-78
2023/12/02 06:18:45;;;;;;;35.10;30.75;;;-2.80;99.90;;;;;;4973284;28;20707;-76
2023/12/02 06:21:12;;;;;;;38.65;30.40;;;-2.70;99.90;;;;;;4970764;28;20043;-76
2023/12/02 06:23:39;;;;;;;35.53;30.17;;;-2.70;99.90;;;;;;4952320;28;20066;-77
2023/12/02 06:26:06;;;;;;;39.45;29.80;;;-2.60;99.90;;;;;;4939015;28;20055;-76
2023/12/02 06:28:33;;;;;;;43.08;32.60;;;-2.50;99.90;;;;;;4942363;28;20572;-77
2023/12/02 06:31:00;;;;;;;49.83;34.67;;;-2.50;99.90;;;;;;4978623;28;20042;-76
2023/12/02 06:33:27;;;;;;;41.65;32.42;;;-2.50;99.90;;;;;;4961507;28;20050;-76
2023/12/02 06:35:54;;;;;;;37.67;31.20;;;-2.50;99.90;;;;;;4955988;28;20093;-75
2023/12/02 06:38:22;;;;;;;34.22;30.08;;;-2.50;99.90;;;;;;4958019;28;20102;-76
2023/12/02 06:40:49;;;;;;;39.08;30.30;;;-2.50;99.90;;;;;;4963094;28;20043;-77
2023/12/02 06:43:16;;;;;;;41.25;30.60;;;-2.50;99.90;;;;;;4954951;28;20399;-76
2023/12/02 06:45:43;;;;;;;38.58;29.30;;;-2.50;99.90;;;;;;4957250;28;20109;-76
2023/12/02 06:48:10;;;;;;;37.38;29.23;;;-2.50;99.90;;;;;;4957112;28;20487;-77
2023/12/02 06:50:37;;;;;;;40.78;30.27;;;-2.50;99.90;;;;;;4954139;28;20045;-77
2023/12/02 06:53:04;;;;;;;41.20;28.98;;;-2.50;99.90;;;;;;4943228;28;20137;-77
2023/12/02 06:55:33;;;;;;;38.08;29.35;;;-2.60;99.90;;;;;;4957832;28;20046;-77
2023/12/02 06:58:00;;;;;;;39.05;29.20;;;-2.50;99.90;;;;;;4963341;28;20057;-76
2023/12/02 07:00:27;;;;;;;42.63;31.33;;;-2.60;99.90;;;;;;4978368;28;20622;-76
2023/12/02 07:02:54;;;;;;;40.55;30.95;;;-2.70;99.90;;;;;;4956515;28;20042;-76
2023/12/02 07:05:21;;;;;;;38.90;29.58;;;-2.70;99.90;;;;;;4940925;28;20556;-76
2023/12/02 07:07:48;;;;;;;43.33;29.33;;;-2.60;99.90;;;;;;4958354;28;20065;-77
2023/12/02 07:10:14;;;;;;;38.85;29.15;;;-2.60;99.90;;;;;;4957882;28;20424;-77
2023/12/02 07:12:41;;;;;;;40.10;30.63;;;-2.60;99.90;;;;;;4939368;28;20054;-78
2023/12/02 07:15:08;;;;;;;39.80;29.58;;;-2.50;99.90;;;;;;4956949;28;20548;-80
2023/12/02 07:17:36;;;;;;;40.70;29.40;;;-2.50;99.90;;;;;;4947664;28;20314;-77
2023/12/02 07:20:04;;;;;;;37.42;29.42;;;-2.60;99.90;;;;;;4960669;28;20049;-78
2023/12/02 07:22:30;;;;;;;48.83;33.03;;;-2.50;99.90;;;;;;4944473;28;20042;-78
2023/12/02 07:24:57;;;;;;;43.35;32.22;;;-2.40;99.90;;;;;;4961662;28;20389;-78
2023/12/02 07:27:24;;;;;;;43.40;30.48;;;-2.40;99.90;;;;;;4958454;28;20042;-79
2023/12/02 07:29:55;;;;;;;44.45;32.15;;;-2.30;99.90;;;;;;4940885;28;20085;-77
2023/12/02 07:32:25;;;;;;;45.22;32.03;;;-2.40;99.90;;;;;;4949842;28;20066;-78
2023/12/02 07:34:52;;;;;;;44.35;31.45;;;-2.40;99.90;;;;;;4961688;28;20496;-77
2023/12/02 07:37:19;;;;;;;42.00;32.58;;;-2.40;99.90;;;;;;4942924;28;20367;-77
2023/12/02 07:39:46;;;;;;;45.00;32.00;;;-2.30;99.90;;;;;;4957349;28;20062;-77
2023/12/02 07:42:13;;;;;;;44.75;30.08;;;-2.30;99.90;;;;;;4964665;28;20061;-77
2023/12/02 07:44:39;;;;;;;49.67;33.75;;;-2.20;99.90;;;;;;4946679;28;20042;-78
2023/12/02 07:47:06;;;;;;;47.00;33.65;;;-2.20;99.90;;;;;;4978028;28;20452;-78
2023/12/02 07:49:33;;;;;;;50.55;34.22;;;-2.20;99.90;;;;;;4948480;28;20097;-77
2023/12/02 07:52:00;;;;;;;43.83;30.40;;;-2.10;99.90;;;;;;4986144;28;20384;-78
2023/12/02 07:54:27;;;;;;;48.17;32.05;;;-2.20;99.90;;;;;;4971994;28;20111;-77
2023/12/02 07:56:54;;;;;;;42.95;31.55;;;-2.10;99.90;;;;;;4974846;28;20077;-77
2023/12/02 07:59:21;;;;;;;44.40;31.63;;;-2.10;99.90;;;;;;4983900;28;20049;-78
2023/12/02 08:01:48;;;;;;;45.83;31.85;;;-2.00;99.90;;;;;;4964980;28;20114;-77
2023/12/02 08:04:15;;;;;;;42.63;31.35;;;-2.10;99.90;;;;;;4952732;28;20065;-77
2023/12/02 08:06:42;;;;;;;44.25;30.60;;;-2.20;99.90;;;;;;4962436;28;20115;-77
2023/12/02 08:09:08;;;;;;;41.28;30.05;;;-2.10;99.90;;;;;;4971148;28;20116;-78
2023/12/02 08:11:36;;;;;;;44.85;30.15;;;-2.20;99.90;;;;;;4965303;28;20102;-78
2023/12/02 08:14:03;;;;;;;43.58;29.65;;;-2.20;99.90;;;;;;4969979;28;20102;-78
2023/12/02 08:16:29;;;;;;;44.20;30.98;;;-2.20;99.90;;;;;;4965566;28;20098;-77
2023/12/02 08:18:56;;;;;;;43.78;32.22;;;-2.20;99.90;;;;;;4967348;28;20046;-78
2023/12/02 08:21:23;;;;;;;50.38;32.10;;;-2.20;99.90;;;;;;4960666;28;20057;-77
2023/12/02 08:23:50;;;;;;;46.90;31.55;;;-2.20;99.90;;;;;;4960537;28;20068;-77
2023/12/02 08:26:17;;;;;;;43.20;29.60;;;-2.20;99.90;;;;;;4965912;28;20054;-77
2023/12/02 08:28:46;;;;;;;41.10;29.67;;;-2.10;99.90;;;;;;4959176;28;20109;-78
2023/12/02 08:31:13;;;;;;;47.05;32.85;;;-2.10;99.90;;;;;;4965184;28;20077;-77
2023/12/02 08:33:41;;;;;;;47.45;30.95;;;-2.10;99.90;;;;;;4964222;28;20043;-78
2023/12/02 08:36:08;;;;;;;45.70;31.52;;;-2.10;99.90;;;;;;4974447;28;20127;-77
2023/12/02 08:38:35;;;;;;;44.47;31.55;;;-2.20;99.90;;;;;;4968102;28;20057;-77
2023/12/02 08:41:03;;;;;;;46.55;32.75;;;-2.00;99.90;;;;;;4970112;28;20102;-77
2023/12/02 08:43:30;;;;;;;46.40;33.10;;;-2.00;99.90;;;;;;4957313;28;20097;-78
2023/12/02 08:45:58;;;;;;;49.38;32.97;;;-1.90;99.90;;;;;;4986260;28;20030;-78
2023/12/02 08:48:25;;;;;;;46.80;33.85;;;-1.80;99.90;;;;;;4973063;28;20465;-78
2023/12/02 08:50:52;;;;;;;46.03;35.17;;;-1.80;99.90;;;;;;4981961;28;20493;-77
2023/12/02 08:53:18;;;;;;;50.35;33.00;;;-1.70;99.90;;;;;;4959202;28;20050;-78
2023/12/02 08:55:45;;;;;;;46.10;34.63;;;-1.80;99.90;;;;;;4962059;28;20046;-78
2023/12/02 08:58:12;;;;;;;49.33;33.15;;;-1.80;99.90;;;;;;4955436;28;20042;-77
2023/12/02 09:00:39;;;;;;;53.03;35.75;;;-1.80;99.90;;;;;;4966374;28;20562;-78
2023/12/02 09:03:06;;;;;;;65.88;44.72;;;-1.80;99.90;;;;;;4963146;28;20097;-78
2023/12/02 09:05:33;;;;;;;52.33;37.55;;;-1.70;99.90;;;;;;4942572;28;20043;-78
2023/12/02 09:08:01;;;;;;;57.80;37.85;;;-1.70;99.90;;;;;;4961771;28;20053;-77
2023/12/02 09:10:28;;;;;;;53.70;37.25;;;-1.80;99.90;;;;;;4945226;28;20531;-78
2023/12/02 09:12:55;;;;;;;48.70;36.70;;;-1.80;99.90;;;;;;4963636;28;20058;-78
2023/12/02 09:15:22;;;;;;;46.15;33.85;;;-1.90;99.90;;;;;;4961439;28;20050;-77
2023/12/02 09:18:04;;;;;;;50.42;37.17;;;-1.80;99.90;;;;;;4947653;28;20034;-78
2023/12/02 09:20:48;;;;;;;49.15;34.10;;;-1.80;99.90;;;;;;4959462;28;20045;-79
2023/12/02 09:23:17;;;;;;;45.13;32.28;;;-1.70;99.90;;;;;;4958188;28;20569;-78
2023/12/02 09:25:45;;;;;;;48.30;34.40;;;-1.60;99.90;;;;;;4965727;28;20045;-78
2023/12/02 09:28:17;;;;;;;47.53;34.97;;;-1.60;99.90;;;;;;4955732;28;20054;-78
2023/12/02 09:31:06;;;;;;;52.08;34.25;;;-1.70;99.90;;;;;;4980033;28;20042;-78
2023/12/02 09:34:02;;;;;;;51.90;36.58;;;-1.60;99.90;;;;;;4967985;28;20054;-78
2023/12/02 09:36:32;;;;;;;53.72;36.05;;;-1.70;99.90;;;;;;4952622;28;20133;-80
2023/12/02 09:39:18;;;;;;;55.45;35.20;;;-1.70;99.90;;;;;;4970979;28;20054;-78
2023/12/02 09:42:01;;;;;;;59.60;34.80;;;-1.60;99.90;;;;;;4950510;28;20057;-79
2023/12/02 09:44:44;;;;;;;51.90;33.00;;;-1.50;99.90;;;;;;4948754;28;20057;-78
2023/12/02 09:47:19;;;;;;;51.65;35.03;;;-1.70;99.90;;;;;;4964169;28;20039;-77
2023/12/02 09:49:51;;;;;;;57.90;36.05;;;-1.70;99.90;;;;;;4975905;28;20047;-78
2023/12/02 09:52:21;;;;;;;58.05;34.55;;;-1.60;99.90;;;;;;4961011;28;20044;-77
2023/12/02 09:54:55;;;;;;;55.83;35.90;;;-1.50;99.90;;;;;;4961995;28;20579;-78
2023/12/02 09:57:32;;;;;;;49.00;33.45;;;-1.40;99.90;;;;;;4962355;28;20046;-78
2023/12/02 10:00:38;;;;;;;49.55;33.17;;;-1.30;99.90;;;;;;4968855;28;20520;-78
2023/12/02 10:03:14;;;;;;;52.58;34.25;;;-1.40;99.90;;;;;;4955077;28;20142;-78
2023/12/02 10:06:18;;;;;;;50.50;32.38;;;-1.50;99.90;;;;;;4962744;28;20675;-78
2023/12/02 10:09:14;;;;;;;61.17;37.53;;;-1.60;99.90;;;;;;4948201;28;20043;-78
2023/12/02 10:11:47;;;;;;;52.25;33.58;;;-1.70;99.90;;;;;;4960236;28;20038;-77
2023/12/02 10:14:16;;;;;;;55.90;33.70;;;-1.70;99.90;;;;;;4957062;28;20064;-78
2023/12/02 10:16:50;;;;;;;59.97;35.08;;;-1.70;99.90;;;;;;4961821;28;20138;-78
2023/12/02 10:19:43;;;;;;;59.15;32.28;;;-1.70;99.90;;;;;;4994887;28;20050;-77
2023/12/02 10:22:10;;;;;;;57.45;34.60;;;-1.70;99.90;;;;;;4975565;28;20046;-78
2023/12/02 10:25:08;;;;;;;56.53;32.78;;;-1.70;99.90;;;;;;4951817;28;20050;-79
2023/12/02 10:27:36;;;;;;;63.47;35.00;;;-1.60;99.90;;;;;;4964084;28;20050;-79
2023/12/02 10:30:15;;;;;;;56.13;32.35;;;-1.40;99.90;;;;;;4967980;28;20053;-79
2023/12/02 10:33:06;;;;;;;59.55;32.63;;;-1.40;99.90;;;;;;4953957;28;20038;-79
2023/12/02 10:35:42;;;;;;;59.33;33.35;;;-1.40;99.90;;;;;;4957275;28;20113;-78
2023/12/02 10:38:32;;;;;;;56.08;32.42;;;-1.30;99.90;;;;;;4974030;28;20109;-78
2023/12/02 10:41:20;;;;;;;51.63;33.65;;;-1.50;99.90;;;;;;4963309;28;20123;-79
2023/12/02 10:43:51;;;;;;;61.13;34.85;;;-1.50;99.90;;;;;;4950371;28;20053;-78
2023/12/02 10:46:19;;;;;;;60.17;34.67;;;-1.60;99.90;;;;;;4960984;28;20088;-78
2023/12/02 10:48:46;;;;;;;53.83;33.25;;;-1.70;99.90;;;;;;4960780;28;20057;-77
2023/12/02 10:51:15;;;;;;;60.83;34.42;;;-1.70;99.90;;;;;;4983863;28;20076;-79
2023/12/02 10:53:43;;;;;;;55.55;34.33;;;-1.70;99.90;;;;;;4946119;28;20249;-80
2023/12/02 10:56:15;;;;;;;48.55;31.23;;;-1.70;99.90;;;;;;4978415;28;20130;-79
2023/12/02 10:58:44;;;;;;;49.55;32.90;;;-1.80;99.90;;;;;;4976308;28;20050;-78
2023/12/02 11:01:14;;;;;;;57.60;34.15;;;-1.80;99.90;;;;;;4986054;28;20527;-79
2023/12/02 11:04:06;;;;;;;53.75;33.00;;;-1.90;99.90;;;;;;4952873;28;20137;-77
2023/12/02 11:06:39;;;;;;;58.25;35.63;;;-1.80;99.90;;;;;;4974732;28;20093;-77
2023/12/02 11:09:16;;;;;;;58.88;35.00;;;-1.70;99.90;;;;;;4967840;28;20088;-79
2023/12/02 11:11:59;;;;;;;55.15;32.85;;;-1.70;99.90;;;;;;4974962;28;20046;-77
2023/12/02 11:14:31;;;;;;;57.45;35.22;;;-1.60;99.90;;;;;;4942416;28;20065;-77
2023/12/02 11:17:13;;;;;;;55.17;32.40;;;-1.60;99.90;;;;;;4943374;28;20046;-77
2023/12/02 11:20:11;;;;;;;59.33;36.90;;;-1.50;99.90;;;;;;4954850;28;20062;-78
2023/12/02 11:23:06;;;;;;;52.30;31.52;;;-1.50;99.90;;;;;;4956908;28;20104;-78
2023/12/02 11:25:41;;;;;;;57.20;34.00;;;-1.50;99.90;;;;;;4951050;28;20054;-77
2023/12/02 11:28:30;;;;;;;55.05;32.90;;;-1.60;99.90;;;;;;4948518;28;20081;-77
2023/12/02 11:31:29;;;;;;;57.53;33.38;;;-1.60;99.90;;;;;;4975097;28;20039;-78
2023/12/02 11:34:25;;;;;;;51.47;31.58;;;-1.70;99.90;;;;;;4967505;28;20100;-77
2023/12/02 11:37:16;;;;;;;60.65;33.10;;;-1.70;99.90;;;;;;4956025;28;20039;-77
2023/12/02 11:40:22;;;;;;;57.03;33.83;;;-1.60;99.90;;;;;;4968844;28;20050;-78
2023/12/02 11:42:58;;;;;;;57.33;33.13;;;-1.50;99.90;;;;;;4939200;28;20357;-78
2023/12/02 11:45:39;;;;;;;54.25;32.47;;;-1.50;99.90;;;;;;4945074;28;20057;-78
2023/12/02 11:48:11;;;;;;;60.70;33.38;;;-1.40;99.90;;;;;;4955260;28;20042;-78
2023/12/02 11:51:16;;;;;;;48.80;30.92;;;-1.40;99.90;;;;;;4954370;28;20052;-78
2023/12/02 11:54:01;;;;;;;60.03;34.87;;;-1.40;99.90;;;;;;4953693;28;20073;-78
2023/12/02 11:56:30;;;;;;;57.28;32.97;;;-1.30;99.90;;;;;;4934551;28;20788;-78
2023/12/02 11:59:27;;;;;;;62.20;32.95;;;-1.30;99.90;;;;;;4956122;28;20047;-78
2023/12/02 12:02:03;;;;;;;59.65;36.00;;;-1.30;99.90;;;;;;4931129;28;20056;-78
2023/12/02 12:04:49;;;;;;;55.83;32.33;;;-1.30;99.90;;;;;;4954114;28;20129;-78
2023/12/02 12:07:45;;;;;;;60.83;32.30;;;-1.20;99.90;;;;;;4957955;28;20110;-78
2023/12/02 12:10:29;;;;;;;60.55;33.22;;;-1.20;99.90;;;;;;4971746;28;20059;-78
2023/12/02 12:12:58;;;;;;;55.22;32.72;;;-1.20;99.90;;;;;;4958265;28;20054;-77
2023/12/02 12:15:25;;;;;;;57.85;33.25;;;-1.20;99.90;;;;;;4958033;28;20097;-77
2023/12/02 12:17:52;;;;;;;53.10;31.17;;;-1.30;99.90;;;;;;4960111;28;20891;-77
2023/12/02 12:20:21;;;;;;;57.83;32.20;;;-1.40;99.90;;;;;;4962497;28;20117;-78
2023/12/02 12:22:49;;;;;;;50.95;30.73;;;-1.50;99.90;;;;;;4982844;28;21325;-79
2023/12/02 12:25:16;;;;;;;56.88;31.13;;;-1.50;99.90;;;;;;4981713;28;20114;-77
2023/12/02 12:27:44;;;;;;;62.78;32.50;;;-1.60;99.90;;;;;;4964308;28;20069;-77
2023/12/02 12:30:11;;;;;;;57.55;32.85;;;-1.60;99.90;;;;;;4962750;28;20051;-77
2023/12/02 12:32:38;;;;;;;59.38;31.58;;;-1.60;99.90;;;;;;4952850;28;20575;-77
2023/12/02 12:35:12;;;;;;;58.80;34.17;;;-1.60;99.90;;;;;;4947596;28;20043;-78
2023/12/02 12:37:45;;;;;;;57.33;33.80;;;-1.60;99.90;;;;;;4975509;28;20554;-77
2023/12/02 12:40:12;;;;;;;52.88;31.25;;;-1.50;99.90;;;;;;4954434;28;20616;-77